createdAt,value
2023-04-17T00:01:07.949Z,100511.47
2023-04-17T00:03:39.848Z,100521.53
2023-04-17T00:06:11.012Z,100536.50
2023-04-17T00:08:42.237Z,100541.28
2023-04-17T00:11:12.638Z,100547.09
2023-04-17T00:13:43.335Z,100542.41
2023-04-17T00:16:15.264Z,100533.59
2023-04-17T00:18:46.403Z,100507.63
2023-04-17T00:21:17.089Z,100511.00
2023-04-17T00:23:49.455Z,100525.00
2023-04-17T00:26:21.108Z,100535.47
2023-04-17T00:28:54.463Z,100553.47
2023-04-17T00:31:25.532Z,100556.72
2023-04-17T00:33:56.264Z,100556.31
2023-04-17T00:36:26.887Z,100555.09
2023-04-17T00:38:57.252Z,100555.81
2023-04-17T00:41:27.983Z,100546.19
2023-04-17T00:43:59.153Z,100566.72
2023-04-17T00:46:29.941Z,100564.84
2023-04-17T00:49:01.455Z,100565.69
2023-04-17T00:51:33.056Z,100571.03
2023-04-17T00:54:03.740Z,100567.81
2023-04-17T00:56:35.493Z,100580.44
2023-04-17T00:59:08.133Z,100584.56
2023-04-17T01:01:40.969Z,100581.75
2023-04-17T01:04:14.750Z,100595.16
2023-04-17T01:06:44.763Z,100595.88
2023-04-17T01:09:16.335Z,100600.38
2023-04-17T01:11:46.957Z,100592.66
2023-04-17T01:14:18.177Z,100590.38
2023-04-17T01:16:48.654Z,100597.94
2023-04-17T01:19:20.147Z,100597.69
2023-04-17T01:21:50.568Z,100599.19
2023-04-17T01:24:21.066Z,100601.38
2023-04-17T01:26:51.968Z,100609.34
2023-04-17T01:29:24.867Z,100615.31
2023-04-17T01:31:55.297Z,100610.50
2023-04-17T01:34:25.570Z,100611.88
2023-04-17T01:36:59.365Z,100607.81
2023-04-17T01:39:30.102Z,100618.06
2023-04-17T01:42:00.743Z,100627.47
2023-04-17T01:44:32.020Z,100621.09
2023-04-17T01:47:02.656Z,100620.66
2023-04-17T01:49:33.514Z,100629.13
2023-04-17T01:52:05.126Z,100615.00
2023-04-17T01:54:36.141Z,100620.66
2023-04-17T01:57:07.086Z,100631.94
2023-04-17T01:59:38.508Z,100631.34
2023-04-17T02:02:09.300Z,100626.19
2023-04-17T02:04:39.911Z,100628.31
2023-04-17T02:07:10.579Z,100617.28
2023-04-17T02:09:40.986Z,100623.06
2023-04-17T02:12:11.907Z,100616.97
2023-04-17T02:14:42.816Z,100617.28
2023-04-17T02:17:13.481Z,100614.91
2023-04-17T02:19:43.945Z,100614.25
2023-04-17T02:22:14.274Z,100613.09
2023-04-17T02:24:44.656Z,100602.72
2023-04-17T02:27:15.794Z,100593.69
2023-04-17T02:29:46.508Z,100595.06
2023-04-17T02:32:20.561Z,100586.47
2023-04-17T02:34:51.219Z,100579.66
2023-04-17T02:37:25.181Z,100586.56
2023-04-17T02:39:57.542Z,100574.53
2023-04-17T02:42:28.860Z,100575.06
2023-04-17T02:44:59.497Z,100567.91
2023-04-17T02:47:29.999Z,100578.69
2023-04-17T02:50:01.968Z,100569.69
2023-04-17T02:52:39.281Z,100573.25
2023-04-17T02:55:11.229Z,100572.44
2023-04-17T02:57:43.534Z,100567.81
2023-04-17T03:00:17.282Z,100561.84
2023-04-17T03:02:48.492Z,100565.28
2023-04-17T03:05:31.663Z,100565.09
2023-04-17T03:08:03.433Z,100574.94
2023-04-17T03:10:39.406Z,100566.03
2023-04-17T03:13:09.856Z,100564.97
2023-04-17T03:15:40.471Z,100569.50
2023-04-17T03:18:10.966Z,100564.16
2023-04-17T03:20:41.361Z,100549.06
2023-04-17T03:23:12.084Z,100540.34
2023-04-17T03:25:42.637Z,100537.50
2023-04-17T03:28:13.656Z,100528.72
2023-04-17T03:30:44.144Z,100521.69
2023-04-17T03:33:14.691Z,100529.44
2023-04-17T03:35:45.772Z,100534.81
2023-04-17T03:38:16.103Z,100535.41
2023-04-17T03:40:47.187Z,100528.41
2023-04-17T03:43:18.090Z,100515.31
2023-04-17T03:45:48.836Z,100514.22
2023-04-17T03:48:19.794Z,100499.47
2023-04-17T03:50:53.044Z,100509.94
2023-04-17T03:53:25.411Z,100514.03
2023-04-17T03:55:56.971Z,100507.31
2023-04-17T03:58:34.737Z,100503.44
2023-04-17T04:01:06.262Z,100507.72
2023-04-17T04:03:40.581Z,100504.91
2023-04-17T04:06:11.510Z,100502.47
2023-04-17T04:08:42.028Z,100498.81
2023-04-17T04:11:12.574Z,100488.53
2023-04-17T04:13:43.310Z,100497.88
2023-04-17T04:16:14.752Z,100500.16
2023-04-17T04:18:45.607Z,100493.47
2023-04-17T04:21:18.239Z,100474.06
2023-04-17T04:23:49.078Z,100464.50
2023-04-17T04:26:23.375Z,100455.72
2023-04-17T04:28:58.154Z,100461.69
2023-04-17T04:31:39.376Z,100462.50
2023-04-17T04:34:11.261Z,100456.22
2023-04-17T04:36:51.725Z,100456.00
2023-04-17T04:39:35.497Z,100456.22
2023-04-17T04:42:07.333Z,100459.13
2023-04-17T04:44:50.032Z,100467.50
2023-04-17T04:47:22.375Z,100461.53
2023-04-17T04:49:53.760Z,100458.47
2023-04-17T04:52:26.716Z,100447.97
2023-04-17T04:57:56.613Z,100452.38
2023-04-17T05:00:27.986Z,100449.88
2023-04-17T05:03:01.145Z,100449.31
2023-04-17T05:05:41.983Z,100443.22
2023-04-17T05:11:08.739Z,100443.13
2023-04-17T05:13:39.858Z,100448.38
2023-04-17T05:16:17.327Z,100447.22
2023-04-17T05:18:49.527Z,100458.22
2023-04-17T05:21:27.589Z,100454.00
2023-04-17T05:24:00.957Z,100437.09
2023-04-17T05:26:32.177Z,100431.84
2023-04-17T05:29:03.082Z,100444.53
2023-04-17T05:31:36.251Z,100450.50
2023-04-17T05:34:13.759Z,100459.31
2023-04-17T05:36:45.615Z,100462.75
2023-04-17T05:39:17.099Z,100458.88
2023-04-17T05:41:47.619Z,100463.28
2023-04-17T05:47:04.905Z,100451.00
2023-04-17T05:49:35.505Z,100445.75
2023-04-17T05:52:06.247Z,100439.56
2023-04-17T05:54:41.751Z,100446.59
2023-04-17T05:57:12.292Z,100449.66
2023-04-17T05:59:43.259Z,100447.03
2023-04-17T06:02:14.794Z,100429.06
2023-04-17T06:04:47.279Z,100429.41
2023-04-17T06:07:17.930Z,100435.69
2023-04-17T06:09:48.405Z,100437.59
2023-04-17T06:12:18.773Z,100430.78
2023-04-17T06:14:50.110Z,100424.94
2023-04-17T06:17:26.003Z,100420.63
2023-04-17T06:19:57.592Z,100422.41
2023-04-17T06:22:29.467Z,100441.84
2023-04-17T06:25:00.166Z,100434.94
2023-04-17T06:27:30.465Z,100426.22
2023-04-17T06:30:00.931Z,100421.91
2023-04-17T06:32:33.418Z,100438.59
2023-04-17T06:35:04.097Z,100435.16
2023-04-17T06:37:54.473Z,100444.81
2023-04-17T06:40:25.319Z,100446.69
2023-04-17T06:42:56.209Z,100444.06
2023-04-17T06:45:30.514Z,100451.84
2023-04-17T06:48:00.921Z,100446.69
2023-04-17T06:50:31.474Z,100452.78
2023-04-17T06:53:01.896Z,100460.66
2023-04-17T06:55:32.262Z,100461.50
2023-04-17T06:58:03.089Z,100473.78
2023-04-17T07:00:33.378Z,100480.69
2023-04-17T07:03:04.726Z,100467.66
2023-04-17T07:05:35.237Z,100467.59
2023-04-17T07:08:05.792Z,100474.63
2023-04-17T07:10:39.967Z,100475.44
2023-04-17T07:13:10.414Z,100470.28
2023-04-17T07:15:40.925Z,100466.75
2023-04-17T07:18:12.230Z,100464.97
2023-04-17T07:20:42.613Z,100463.28
2023-04-17T07:23:13.277Z,100465.66
2023-04-17T07:25:43.673Z,100458.88
2023-04-17T07:28:14.103Z,100461.38
2023-04-17T07:33:27.524Z,100457.91
2023-04-17T07:35:57.946Z,100455.28
2023-04-17T07:38:28.592Z,100467.59
2023-04-17T07:40:58.981Z,100466.75
2023-04-17T07:43:30.004Z,100453.63
2023-04-17T07:46:00.710Z,100444.19
2023-04-17T07:48:31.109Z,100454.56
2023-04-17T07:51:03.076Z,100462.53
2023-04-17T07:53:33.654Z,100464.34
2023-04-17T07:56:04.183Z,100465.16
2023-04-17T07:58:37.209Z,100458.97
2023-04-17T08:03:53.381Z,100461.72
2023-04-17T08:06:23.414Z,100466.94
2023-04-17T08:08:53.709Z,100449.56
2023-04-17T08:11:24.125Z,100451.44
2023-04-17T08:13:55.112Z,100457.50
2023-04-17T08:16:25.592Z,100456.66
2023-04-17T08:24:22.214Z,100461.00
2023-04-17T08:26:52.572Z,100459.41
2023-04-17T08:29:22.988Z,100470.84
2023-04-17T08:32:06.856Z,100474.44
2023-04-17T08:37:29.648Z,100473.59
2023-04-17T08:40:00.068Z,100473.59
2023-04-17T08:42:33.967Z,100477.97
2023-04-17T08:45:10.739Z,100472.84
2023-04-17T08:47:45.415Z,100478.09
2023-04-17T08:50:21.078Z,100479.16
2023-04-17T08:55:38.027Z,100435.63
2023-04-17T08:58:10.643Z,100446.97
2023-04-17T09:00:46.787Z,100453.16
2023-04-17T09:03:18.372Z,100451.50
2023-04-17T09:05:49.976Z,100463.78
2023-04-17T09:08:27.731Z,100457.69
2023-04-17T09:10:58.490Z,100463.78
2023-04-17T09:13:30.891Z,100462.19
2023-04-17T09:16:10.577Z,100470.88
2023-04-17T09:18:44.151Z,100471.00
2023-04-17T09:21:17.821Z,100477.19
2023-04-17T09:23:51.944Z,100470.25
2023-04-17T09:26:27.020Z,100466.72
2023-04-17T09:29:13.066Z,100465.00
2023-04-17T09:31:45.953Z,100463.47
2023-04-17T09:34:17.972Z,100468.59
2023-04-17T09:36:48.216Z,100474.91
2023-04-17T09:39:27.155Z,100465.25
2023-04-17T09:42:08.128Z,100462.72
2023-04-17T09:44:39.472Z,100464.50
2023-04-17T09:47:11.824Z,100467.13
2023-04-17T09:49:44.211Z,100461.03
2023-04-17T09:52:15.162Z,100460.22
2023-04-17T09:54:47.921Z,100463.78
2023-04-17T09:57:19.989Z,100462.13
2023-04-17T09:59:51.503Z,100461.28
2023-04-17T10:02:23.126Z,100453.41
2023-04-17T10:04:56.210Z,100448.19
2023-04-17T10:07:27.541Z,100463.06
2023-04-17T10:09:58.124Z,100475.31
2023-04-17T10:15:17.087Z,100479.84
2023-04-17T10:23:32.798Z,100475.53
2023-04-17T10:26:27.278Z,100477.34
2023-04-17T10:29:01.474Z,100469.56
2023-04-17T10:32:08.758Z,100468.72
2023-04-17T10:34:43.187Z,100461.81
2023-04-17T10:37:18.673Z,100467.16
2023-04-17T10:39:55.818Z,100456.69
2023-04-17T10:42:27.364Z,100462.75
2023-04-17T10:45:07.418Z,100457.53
2023-04-17T10:47:39.459Z,100459.41
2023-04-17T10:50:11.665Z,100464.63
2023-04-17T10:52:44.568Z,100461.19
2023-04-17T10:55:26.724Z,100458.56
2023-04-17T10:58:01.329Z,100468.22
2023-04-17T11:00:40.379Z,100483.94
2023-04-17T11:03:10.828Z,100493.59
2023-04-17T11:05:49.852Z,100486.69
2023-04-17T11:08:21.765Z,100482.38
2023-04-17T11:10:55.847Z,100481.56
2023-04-17T11:13:26.947Z,100478.06
2023-04-17T11:15:57.734Z,100473.69
2023-04-17T11:18:28.198Z,100483.31
2023-04-17T11:20:59.704Z,100476.41
2023-04-17T11:23:35.590Z,100478.19
2023-04-17T11:26:05.965Z,100478.19
2023-04-17T11:28:40.822Z,100480.81
2023-04-17T11:31:15.427Z,100472.22
2023-04-17T11:33:49.587Z,100449.47
2023-04-17T11:36:20.049Z,100447.81
2023-04-17T11:41:41.860Z,100433.84
2023-04-17T11:44:15.602Z,100442.66
2023-04-17T11:46:50.998Z,100447.88
2023-04-17T11:49:40.961Z,100439.19
2023-04-17T11:52:12.641Z,100438.34
2023-04-17T11:54:43.199Z,100441.81
2023-04-17T11:57:17.356Z,100440.13
2023-04-17T11:59:47.892Z,100443.72
2023-04-17T12:02:18.391Z,100455.97
2023-04-17T12:04:48.998Z,100453.34
2023-04-17T12:07:26.388Z,100451.66
2023-04-17T12:10:00.004Z,100439.50
2023-04-17T12:12:32.621Z,100441.28
2023-04-17T12:15:03.259Z,100438.69
2023-04-17T12:17:34.206Z,100443.91
2023-04-17T12:20:05.811Z,100454.41
2023-04-17T12:22:36.271Z,100447.38
2023-04-17T12:25:07.368Z,100450.94
2023-04-17T12:30:21.185Z,100457.13
2023-04-17T12:32:53.647Z,100463.31
2023-04-17T12:35:25.640Z,100467.63
2023-04-17T12:43:27.745Z,100461.63
2023-04-17T12:45:59.909Z,100455.56
2023-04-17T12:48:32.903Z,100446.84
2023-04-17T12:51:03.244Z,100443.41
2023-04-17T13:01:44.101Z,100429.59
2023-04-17T13:04:15.073Z,100436.56
2023-04-17T13:06:45.879Z,100434.81
2023-04-17T13:09:18.460Z,100437.50
2023-04-17T13:11:48.859Z,100436.56
2023-04-17T13:14:19.287Z,100443.69
2023-04-17T13:16:52.005Z,100448.94
2023-04-17T13:19:22.460Z,100442.84
2023-04-17T13:21:56.362Z,100438.56
2023-04-17T13:24:27.586Z,100434.28
2023-04-17T13:27:02.546Z,100425.56
2023-04-17T13:29:33.413Z,100429.97
2023-04-17T13:32:04.051Z,100429.13
2023-04-17T13:34:35.342Z,100429.97
2023-04-17T13:37:06.003Z,100429.13
2023-04-17T13:39:37.462Z,100438.75
2023-04-17T13:42:08.701Z,100439.72
2023-04-17T13:44:39.110Z,100440.56
2023-04-17T13:47:09.427Z,100437.94
2023-04-17T13:49:39.812Z,100428.41
2023-04-17T13:52:10.333Z,100423.16
2023-04-17T13:54:40.891Z,100419.72
2023-04-17T13:57:11.943Z,100416.25
2023-04-17T13:59:42.570Z,100410.16
2023-04-17T14:02:13.156Z,100411.00
2023-04-17T14:04:43.664Z,100406.69
2023-04-17T14:07:16.878Z,100408.47
2023-04-17T14:09:47.393Z,100409.31
2023-04-17T14:12:22.201Z,100415.50
2023-04-17T14:14:52.786Z,100409.44
2023-04-17T14:17:23.076Z,100417.28
2023-04-17T14:19:54.473Z,100414.78
2023-04-17T14:22:24.919Z,100404.31
2023-04-17T14:24:55.288Z,100412.16
2023-04-17T14:27:25.644Z,100416.56
2023-04-17T14:29:57.502Z,100412.25
2023-04-17T14:32:28.689Z,100410.50
2023-04-17T14:34:59.341Z,100416.66
2023-04-17T14:37:30.188Z,100411.41
2023-04-17T14:40:01.471Z,100410.59
2023-04-17T14:42:38.066Z,100394.88
2023-04-17T14:45:17.714Z,100393.19
2023-04-17T14:47:48.386Z,100393.19
2023-04-17T14:50:18.929Z,100392.38
2023-04-17T14:52:49.364Z,100394.97
2023-04-17T14:55:19.596Z,100390.69
2023-04-17T14:57:50.377Z,100379.38
2023-04-17T15:00:22.395Z,100379.38
2023-04-17T15:02:53.126Z,100373.28
2023-04-17T15:05:24.031Z,100361.97
2023-04-17T15:07:55.191Z,100361.97
2023-04-17T15:10:26.595Z,100344.59
2023-04-17T15:13:01.882Z,100334.94
2023-04-17T15:15:32.260Z,100327.22
2023-04-17T15:18:03.427Z,100318.41
2023-04-17T15:20:36.338Z,100314.94
2023-04-17T15:23:06.446Z,100316.72
2023-04-17T15:25:36.707Z,100305.41
2023-04-17T15:28:07.322Z,100281.84
2023-04-17T15:30:38.068Z,100271.38
2023-04-17T15:35:59.271Z,100259.22
2023-04-17T15:38:30.107Z,100247.06
2023-04-17T15:41:00.559Z,100251.38
2023-04-17T15:43:31.813Z,100242.69
2023-04-17T15:46:03.776Z,100232.22
2023-04-17T15:48:34.447Z,100225.28
2023-04-17T15:51:05.827Z,100221.81
2023-04-17T15:53:36.051Z,100228.00
2023-04-17T15:56:08.306Z,100221.09
2023-04-17T15:58:38.803Z,100216.69
2023-04-17T16:01:09.424Z,100215.88
2023-04-17T16:03:39.911Z,100216.69
2023-04-17T16:06:12.618Z,100221.09
2023-04-17T16:08:43.221Z,100235.88
2023-04-17T16:11:14.566Z,100231.59
2023-04-17T16:13:44.972Z,100242.06
2023-04-17T16:16:15.360Z,100252.63
2023-04-17T16:18:49.222Z,100252.63
2023-04-17T16:21:19.815Z,100255.25
2023-04-17T16:23:50.987Z,100248.25
2023-04-17T16:26:21.639Z,100231.66
2023-04-17T16:28:52.167Z,100221.31
2023-04-17T16:31:23.931Z,100221.31
2023-04-17T16:33:54.920Z,100216.06
2023-04-17T16:36:25.337Z,100216.06
2023-04-17T16:38:56.661Z,100207.38
2023-04-17T16:41:28.251Z,100210.00
2023-04-17T16:44:00.337Z,100205.72
2023-04-17T16:46:45.640Z,100196.91
2023-04-17T16:49:21.890Z,100178.72
2023-04-17T16:51:52.445Z,100183.94
2023-04-17T16:54:23.207Z,100176.91
2023-04-17T16:56:54.311Z,100183.13
2023-04-17T16:59:25.650Z,100173.47
2023-04-17T17:01:56.496Z,100178.72
2023-04-17T17:04:27.370Z,100174.38
2023-04-17T17:06:58.042Z,100164.78
2023-04-17T17:09:28.816Z,100150.81
2023-04-17T17:11:59.445Z,100144.75
2023-04-17T17:14:30.411Z,100117.75
2023-04-17T17:17:01.483Z,100134.53
2023-04-17T17:19:32.052Z,100152.72
2023-04-17T17:22:02.519Z,100157.97
2023-04-17T17:24:33.001Z,100151.91
2023-04-17T17:27:04.599Z,100150.13
2023-04-17T17:29:35.499Z,100159.75
2023-04-17T17:32:06.015Z,100167.59
2023-04-17T17:34:36.295Z,100148.56
2023-04-17T17:37:06.777Z,100136.31
2023-04-17T17:39:36.971Z,100135.47
2023-04-17T17:42:10.297Z,100128.47
2023-04-17T17:44:41.124Z,100132.88
2023-04-17T17:47:11.545Z,100125.00
2023-04-17T17:49:42.140Z,100111.06
2023-04-17T17:52:12.664Z,100106.78
2023-04-17T17:54:44.242Z,100101.53
2023-04-17T17:57:14.944Z,100088.44
2023-04-17T17:59:46.496Z,100098.91
2023-04-17T18:02:17.236Z,100090.22
2023-04-17T18:04:49.634Z,100086.78
2023-04-17T18:07:20.235Z,100092.97
2023-04-17T18:09:51.649Z,100100.69
2023-04-17T18:12:22.276Z,100092.97
2023-04-17T18:14:52.640Z,100082.50
2023-04-17T18:17:23.195Z,100075.59
2023-04-17T18:19:53.728Z,100064.16
2023-04-17T18:22:23.859Z,100061.56
2023-04-17T18:24:57.888Z,100049.41
2023-04-17T18:27:28.701Z,100052.03
2023-04-17T18:32:43.731Z,100036.31
2023-04-17T18:35:14.262Z,100030.22
2023-04-17T18:37:46.765Z,100025.00
2023-04-17T18:40:17.499Z,99997.97
2023-04-17T18:42:47.997Z,99997.16
2023-04-17T18:45:18.384Z,99985.84
2023-04-17T18:47:48.816Z,99977.88
2023-04-17T18:50:19.529Z,99973.59
2023-04-17T18:52:51.083Z,99977.03
2023-04-17T18:55:21.962Z,99978.00
2023-04-17T18:57:52.391Z,99967.53
2023-04-17T19:00:22.663Z,99969.31
2023-04-17T19:02:53.851Z,99964.06
2023-04-17T19:05:24.757Z,99958.00
2023-04-17T19:07:55.525Z,99963.25
2023-04-17T19:10:26.593Z,99963.25
2023-04-17T19:12:56.984Z,99968.47
2023-04-17T19:15:27.654Z,99966.81
2023-04-17T19:17:58.447Z,99964.19
2023-04-17T19:20:29.549Z,99977.28
2023-04-17T19:23:00.916Z,99960.75
2023-04-17T19:25:31.835Z,99954.56
2023-04-17T19:28:02.563Z,99980.81
2023-04-17T19:30:33.020Z,99972.16
2023-04-17T19:33:03.252Z,99968.59
2023-04-17T19:35:34.285Z,99980.81
2023-04-17T19:38:04.715Z,99971.31
2023-04-17T19:40:35.461Z,99971.31
2023-04-17T19:43:05.852Z,99976.56
2023-04-17T19:45:37.351Z,99975.72
2023-04-17T19:48:08.478Z,99973.94
2023-04-17T19:50:38.868Z,99987.97
2023-04-17T19:53:09.272Z,99998.44
2023-04-17T19:55:43.006Z,99995.00
2023-04-17T19:58:13.355Z,99995.84
2023-04-17T20:00:43.780Z,100003.69
2023-04-17T20:03:14.277Z,100006.44
2023-04-17T20:05:46.275Z,100002.84
2023-04-17T20:08:17.124Z,99998.44
2023-04-17T20:10:47.610Z,99999.41
2023-04-17T20:13:18.052Z,99999.41
2023-04-17T20:15:48.436Z,99995.13
2023-04-17T20:18:20.164Z,99985.47
2023-04-17T20:20:50.694Z,99996.78
2023-04-17T20:23:21.178Z,100008.22
2023-04-17T20:25:52.302Z,100010.00
2023-04-17T20:28:22.763Z,100017.84
2023-04-17T20:30:53.398Z,100015.22
2023-04-17T20:33:23.815Z,100003.91
2023-04-17T20:35:54.211Z,100001.28
2023-04-17T20:38:25.437Z,99987.38
2023-04-17T20:43:38.933Z,99994.38
2023-04-17T20:46:09.537Z,99991.75
2023-04-17T20:48:40.214Z,100008.31
2023-04-17T20:51:10.592Z,100010.09
2023-04-17T20:53:40.974Z,100006.63
2023-04-17T20:56:11.618Z,99983.22
2023-04-17T20:58:42.053Z,100000.78
2023-04-17T21:01:12.576Z,100005.19
2023-04-17T21:09:13.292Z,100021.16
2023-04-17T21:11:43.855Z,100026.38
2023-04-17T21:14:16.533Z,100002.81
2023-04-17T21:16:47.694Z,100014.22
2023-04-17T21:19:18.036Z,100021.16
2023-04-17T21:21:50.010Z,100015.91
2023-04-17T21:24:20.544Z,100020.19
2023-04-17T21:26:50.977Z,100017.78
2023-04-17T21:29:21.344Z,100029.22
2023-04-17T21:31:51.846Z,100038.84
2023-04-17T21:34:22.708Z,100035.50
2023-04-17T21:39:39.538Z,100043.34
2023-04-17T21:42:11.292Z,100035.50
2023-04-17T21:44:42.382Z,100036.34
2023-04-17T21:47:12.976Z,100051.19
2023-04-17T21:49:43.468Z,100051.19
2023-04-17T21:52:14.609Z,100051.31
2023-04-17T21:54:45.661Z,100060.81
2023-04-17T21:57:16.595Z,100056.41
2023-04-17T21:59:46.957Z,100068.69
2023-04-17T22:02:17.388Z,100055.72
2023-04-17T22:04:48.598Z,100045.13
2023-04-17T22:07:19.940Z,100047.03
2023-04-17T22:09:50.876Z,100051.53
2023-04-17T22:12:22.312Z,100040.22
2023-04-17T22:14:52.696Z,100045.59
2023-04-17T22:17:23.068Z,100042.13
2023-04-17T22:19:53.403Z,100044.88
2023-04-17T22:22:24.108Z,100054.25
2023-04-17T22:24:54.689Z,100046.28
2023-04-17T22:27:25.027Z,100054.25
2023-04-17T22:29:55.416Z,100063.06
2023-04-17T22:32:26.490Z,100061.41
2023-04-17T22:34:56.736Z,100061.41
2023-04-17T22:37:27.068Z,100051.75
2023-04-17T22:39:59.906Z,100055.34
2023-04-17T22:42:30.301Z,100064.72
2023-04-17T22:45:00.760Z,100072.47
2023-04-17T22:47:31.189Z,100081.16
2023-04-17T22:50:01.578Z,100093.31
2023-04-17T22:52:32.061Z,100091.63
2023-04-17T22:55:05.194Z,100090.91
2023-04-17T22:57:36.666Z,100101.38
2023-04-17T23:00:09.462Z,100107.56
2023-04-17T23:02:40.230Z,100111.84
2023-04-17T23:05:11.540Z,100115.41
2023-04-17T23:07:42.820Z,100116.22
2023-04-17T23:10:25.226Z,100121.59
2023-04-17T23:12:55.595Z,100126.81
2023-04-17T23:15:26.904Z,100125.88
2023-04-17T23:17:57.317Z,100132.06
2023-04-17T23:20:28.624Z,100129.44
2023-04-17T23:22:59.170Z,100128.59
2023-04-17T23:25:29.549Z,100129.53
2023-04-17T23:27:59.914Z,100125.97
2023-04-17T23:30:30.284Z,100129.44
2023-04-17T23:33:00.746Z,100129.44
2023-04-17T23:35:31.413Z,100129.44
2023-04-17T23:38:01.883Z,100119.91
2023-04-17T23:40:34.138Z,100121.78
2023-04-17T23:43:04.816Z,100117.38
2023-04-17T23:45:35.236Z,100119.28
2023-04-17T23:48:05.749Z,100112.47
2023-04-17T23:50:36.305Z,100100.16
2023-04-17T23:53:06.804Z,100084.53
2023-04-17T23:55:37.521Z,100084.53
2023-04-17T23:58:08.904Z,100100.22
